Time;durP1;ratioP1;P1;durP2;ratioP2;P2;SDS_P1;SDS_P2;PMS_P1;PMS_P2;Temp;Humidity;BMP_temperature;BMP_pressure;BME280_temperature;BME280_humidity;BME280_pressure;Samples;Min_cycle;Max_cycle;Signal;HPM_P1;HPM_P2
2022/11/27 00:02:22;;;;;;;10.32;6.00;;;;;;;1.21;97.75;95600.72;5051949;28;20199;-74
2022/11/27 00:04:49;;;;;;;27.00;14.27;;;;;;;1.20;97.55;95601.78;5053044;28;20207;-75
2022/11/27 00:07:16;;;;;;;24.13;14.35;;;;;;;4.31;100.00;95585.47;5054085;28;20728;-77
2022/11/27 00:09:42;;;;;;;29.92;17.45;;;;;;;4.54;100.00;95584.16;5067702;28;20203;-78
2022/11/27 00:12:09;;;;;;;29.63;16.38;;;;;;;3.34;100.00;95597.59;5060730;28;20229;-78
2022/11/27 00:14:37;;;;;;;11.82;5.15;;;;;;;2.80;100.00;95603.09;5061198;28;20203;-78
2022/11/27 00:17:04;;;;;;;8.00;5.53;;;;;;;2.44;100.00;95593.94;5051894;28;20551;-77
2022/11/27 00:19:31;;;;;;;4.93;3.33;;;;;;;2.20;100.00;95597.94;5067436;28;20210;-77
2022/11/27 00:21:58;;;;;;;6.53;4.35;;;;;;;1.91;99.54;95597.38;5075133;28;20262;-77
2022/11/27 00:24:24;;;;;;;8.73;4.30;;;;;;;1.88;98.64;95599.72;5067171;28;20204;-79
2022/11/27 00:26:51;;;;;;;8.85;4.53;;;;;;;1.69;98.27;95597.34;5063243;28;20754;-78
2022/11/27 00:29:18;;;;;;;7.20;3.90;;;;;;;1.77;98.67;95598.81;5068144;28;20203;-78
2022/11/27 00:31:46;;;;;;;12.68;5.30;;;;;;;1.79;98.52;95600.16;5062781;28;20213;-79
2022/11/27 00:34:13;;;;;;;6.82;3.38;;;;;;;1.88;98.13;95607.75;5057202;28;20231;-77
2022/11/27 00:36:40;;;;;;;10.07;5.05;;;;;;;1.83;96.82;95613.81;5062955;28;20206;-78
2022/11/27 00:39:07;;;;;;;6.45;4.50;;;;;;;1.78;96.74;95611.88;5055545;28;20264;-78
2022/11/27 00:41:34;;;;;;;9.13;4.15;;;;;;;1.77;96.33;95610.31;5063591;28;20238;-78
2022/11/27 00:44:01;;;;;;;7.55;3.40;;;;;;;1.86;95.63;95610.66;5071267;28;20673;-77
2022/11/27 00:46:30;;;;;;;11.73;4.72;;;;;;;1.76;95.11;95619.38;5075588;28;20265;-77
2022/11/27 00:49:00;;;;;;;5.40;3.72;;;;;;;1.58;94.02;95621.50;5066171;28;20204;-77
2022/11/27 00:51:28;;;;;;;8.63;4.03;;;;;;;1.63;95.33;95614.38;5050328;28;20199;-77
2022/11/27 00:53:55;;;;;;;8.05;4.07;;;;;;;1.68;94.56;95621.63;5055416;28;20224;-78
2022/11/27 00:56:25;;;;;;;14.20;5.10;;;;;;;1.59;94.10;95617.78;5067693;28;20449;-78
2022/11/27 00:58:52;;;;;;;7.80;4.38;;;;;;;1.53;94.89;95619.56;5053461;28;20731;-77
2022/11/27 01:01:21;;;;;;;7.57;4.05;;;;;;;1.57;95.02;95610.03;5064650;28;20272;-78
2022/11/27 01:03:49;;;;;;;8.05;4.55;;;;;;;1.53;95.58;95616.09;5050735;28;20203;-77
2022/11/27 01:06:19;;;;;;;5.72;3.88;;;;;;;1.73;95.33;95608.38;5059941;28;20196;-77
2022/11/27 01:08:46;;;;;;;10.30;5.25;;;;;;;1.72;95.23;95612.09;5060931;28;20198;-78
2022/11/27 01:11:14;;;;;;;9.88;4.90;;;;;;;1.77;94.43;95614.84;5054234;28;20200;-77
2022/11/27 01:13:42;;;;;;;8.25;4.75;;;;;;;1.76;93.67;95594.53;5059216;28;20297;-77
2022/11/27 01:16:13;;;;;;;4.75;3.92;;;;;;;1.69;94.01;95601.88;5069877;28;20666;-78
2022/11/27 01:18:42;;;;;;;6.28;4.53;;;;;;;1.63;93.51;95592.22;5062504;28;20200;-78
2022/11/27 01:21:10;;;;;;;25.63;14.02;;;;;;;1.69;93.31;95588.53;5063967;28;20242;-79
2022/11/27 01:23:38;;;;;;;10.77;4.97;;;;;;;1.60;93.73;95592.72;5059277;28;20204;-77
2022/11/27 01:26:08;;;;;;;12.05;5.68;;;;;;;1.52;94.43;95598.47;5063565;28;20203;-77
2022/11/27 01:28:35;;;;;;;7.88;4.05;;;;;;;1.49;94.59;95590.97;5061506;28;20202;-77
2022/11/27 01:31:05;;;;;;;9.40;5.35;;;;;;;1.54;94.63;95588.34;5065637;28;20200;-77
2022/11/27 01:33:31;;;;;;;5.57;4.40;;;;;;;1.52;94.79;95579.75;5060780;28;20246;-77
2022/11/27 01:36:00;;;;;;;6.90;4.15;;;;;;;1.51;94.55;95583.50;5051594;28;20207;-77
2022/11/27 01:38:30;;;;;;;5.88;4.25;;;;;;;1.43;94.82;95580.22;5061330;28;20199;-77
2022/11/27 01:40:59;;;;;;;7.90;4.93;;;;;;;1.45;95.17;95574.63;5055694;28;20223;-78
2022/11/27 01:43:40;;;;;;;10.48;5.60;;;;;;;1.12;94.63;95588.81;5069337;28;20206;-78
2022/11/27 01:46:17;;;;;;;9.80;4.93;;;;;;;0.67;97.40;95592.41;5057500;28;20676;-78
2022/11/27 01:48:44;;;;;;;10.52;3.45;;;;;;;0.78;99.13;95584.59;5052761;28;20212;-77
2022/11/27 01:51:11;;;;;;;14.25;6.25;;;;;;;0.90;99.70;95577.31;5060091;28;20605;-77
2022/11/27 01:53:38;;;;;;;15.48;5.30;;;;;;;1.12;99.34;95575.50;5065007;28;20701;-77
2022/11/27 01:56:08;;;;;;;8.48;4.30;;;;;;;1.23;98.93;95577.25;5060891;28;20199;-77
2022/11/27 01:58:35;;;;;;;10.10;5.65;;;;;;;1.25;98.20;95583.16;5056485;28;20229;-76
2022/11/27 02:01:02;;;;;;;11.85;5.25;;;;;;;1.30;98.53;95583.22;5057955;28;20249;-77
2022/11/27 02:03:29;;;;;;;7.82;4.18;;;;;;;1.33;98.72;95580.06;5063858;28;20196;-76
2022/11/27 02:05:55;;;;;;;8.07;4.70;;;;;;;1.30;98.56;95579.75;5062741;28;20257;-77
2022/11/27 02:08:22;;;;;;;6.50;3.83;;;;;;;1.58;98.04;95578.78;5056905;28;20693;-77
2022/11/27 02:10:53;;;;;;;9.55;4.85;;;;;;;1.83;97.47;95584.44;5057051;28;20203;-77
2022/11/27 02:13:29;;;;;;;10.05;4.32;;;;;;;1.69;96.32;95575.19;5063213;28;20200;-77
2022/11/27 02:16:04;;;;;;;14.40;6.00;;;;;;;1.74;96.45;95577.94;5063079;28;20866;-77
2022/11/27 02:18:41;;;;;;;11.30;4.75;;;;;;;1.74;96.21;95577.94;5058721;28;20241;-77
2022/11/27 02:21:14;;;;;;;13.38;5.63;;;;;;;1.58;96.17;95576.94;5051816;28;20219;-76
2022/11/27 02:24:01;;;;;;;8.88;4.88;;;;;;;1.46;96.01;95578.09;5049709;28;20203;-76
2022/11/27 02:26:50;;;;;;;6.68;3.80;;;;;;;1.49;96.28;95583.75;5049150;28;20192;-76
2022/11/27 02:29:22;;;;;;;33.40;18.45;;;;;;;1.53;95.22;95586.72;5063369;28;20223;-76
2022/11/27 02:31:57;;;;;;;32.50;16.67;;;;;;;1.43;95.72;95572.19;5060492;28;20256;-76
2022/11/27 02:34:28;;;;;;;35.45;18.67;;;;;;;1.42;96.70;95586.59;5055012;28;20222;-76
2022/11/27 02:37:01;;;;;;;35.00;17.45;;;;;;;1.43;96.71;95588.22;5056102;28;20237;-76
2022/11/27 02:39:33;;;;;;;33.78;18.23;;;;;;;1.38;97.11;95590.81;5056794;28;20278;-76
2022/11/27 02:42:06;;;;;;;37.58;18.77;;;;;;;1.47;97.57;95595.72;5055739;28;20311;-77
2022/11/27 02:44:40;;;;;;;35.00;17.40;;;;;;;1.61;98.21;95594.31;5060333;28;20659;-77
2022/11/27 02:47:07;;;;;;;37.25;19.02;;;;;;;1.74;97.56;95583.28;5062985;28;20195;-77
2022/11/27 02:49:36;;;;;;;35.30;17.98;;;;;;;1.75;97.33;95587.56;5049204;28;20203;-77
2022/11/27 02:52:05;;;;;;;35.83;18.20;;;;;;;1.56;97.09;95586.25;5048505;28;20269;-78
2022/11/27 02:54:33;;;;;;;38.15;19.13;;;;;;;1.47;97.39;95587.72;5049355;28;20277;-77
2022/11/27 02:57:03;;;;;;;35.45;18.55;;;;;;;1.34;98.03;95589.69;5062391;28;20206;-77
2022/11/27 02:59:33;;;;;;;34.65;18.98;;;;;;;1.30;98.27;95593.91;5061785;28;20206;-77
2022/11/27 03:02:07;;;;;;;32.05;18.20;;;;;;;1.25;98.83;95588.47;5062744;28;20332;-77
2022/11/27 03:04:41;;;;;;;33.15;18.77;;;;;;;1.42;98.13;95591.94;5062666;28;20195;-77
2022/11/27 03:07:13;;;;;;;32.00;17.63;;;;;;;1.45;98.48;95595.97;5057733;28;20198;-77
2022/11/27 03:09:43;;;;;;;39.75;19.40;;;;;;;1.44;97.99;95599.69;5055532;28;20188;-77
2022/11/27 03:12:11;;;;;;;33.35;17.20;;;;;;;1.40;98.69;95594.03;5059279;28;20601;-77
2022/11/27 03:14:40;;;;;;;33.95;17.55;;;;;;;1.39;98.49;95597.75;5062327;28;20203;-78
2022/11/27 03:17:24;;;;;;;33.72;17.80;;;;;;;1.32;99.03;95599.00;5049420;28;20691;-78
2022/11/27 03:19:54;;;;;;;36.53;18.15;;;;;;;1.27;99.08;95599.72;5060333;28;20769;-78
2022/11/27 03:22:21;;;;;;;36.42;18.52;;;;;;;1.49;98.89;95596.31;5049284;28;20682;-78
2022/11/27 03:24:49;;;;;;;38.47;18.50;;;;;;;1.80;98.87;95600.97;5049157;28;20203;-77
2022/11/27 03:27:22;;;;;;;32.42;17.33;;;;;;;2.00;97.64;95609.22;5062910;28;20296;-78
2022/11/27 03:29:53;;;;;;;31.60;17.05;;;;;;;1.98;96.85;95606.00;5061349;28;20196;-78
2022/11/27 03:32:22;;;;;;;13.93;5.80;;;;;;;2.23;96.00;95602.00;5062554;28;20337;-78
2022/11/27 03:34:48;;;;;;;7.10;3.97;;;;;;;2.28;95.20;95602.06;5057487;28;20199;-77
2022/11/27 03:37:15;;;;;;;8.52;5.20;;;;;;;2.35;94.67;95589.28;5068737;28;20195;-78
2022/11/27 03:39:43;;;;;;;10.73;6.28;;;;;;;2.40;93.96;95600.03;5061863;28;20213;-78
2022/11/27 03:42:19;;;;;;;13.25;6.18;;;;;;;2.29;93.27;95595.66;5059391;28;20323;-78
2022/11/27 03:44:53;;;;;;;6.63;5.07;;;;;;;2.37;93.61;95597.88;5072239;28;20282;-78
2022/11/27 03:47:34;;;;;;;15.23;6.75;;;;;;;2.45;93.58;95590.22;5067182;28;20601;-78
2022/11/27 03:50:16;;;;;;;7.90;3.97;;;;;;;2.45;94.08;95590.22;5065993;28;20187;-78
2022/11/27 03:52:51;;;;;;;10.05;4.70;;;;;;;2.46;93.40;95588.34;5051999;28;20273;-78
2022/11/27 03:55:26;;;;;;;10.48;6.75;;;;;;;2.28;94.22;95588.69;5065210;28;20196;-78
2022/11/27 03:57:58;;;;;;;12.88;6.45;;;;;;;2.30;94.15;95591.94;5064606;28;20187;-78
2022/11/27 04:00:25;;;;;;;9.70;4.63;;;;;;;2.20;94.58;95594.47;5052588;28;20188;-79
2022/11/27 04:02:53;;;;;;;13.75;5.90;;;;;;;2.37;94.09;95590.66;5065717;28;20825;-78
2022/11/27 04:05:20;;;;;;;11.65;4.45;;;;;;;2.19;94.59;95579.53;5059830;28;20203;-79
2022/11/27 04:07:47;;;;;;;10.38;5.32;;;;;;;2.34;95.15;95587.66;5058851;28;20680;-79
2022/11/27 04:10:14;;;;;;;11.73;5.10;;;;;;;2.38;93.88;95575.41;5064172;28;20204;-78
2022/11/27 04:12:41;;;;;;;8.35;5.47;;;;;;;2.24;94.34;95583.03;5065312;28;20273;-78
2022/11/27 04:15:09;;;;;;;8.27;4.47;;;;;;;1.91;95.44;95577.88;5051774;28;20208;-79
2022/11/27 04:17:36;;;;;;;8.63;5.32;;;;;;;2.03;95.89;95582.03;5064986;28;20256;-78
2022/11/27 04:20:05;;;;;;;12.13;5.30;;;;;;;2.26;95.59;95585.47;5059536;28;20739;-78
2022/11/27 04:22:32;;;;;;;8.75;4.28;;;;;;;2.21;94.97;95577.38;5055767;28;20254;-78
2022/11/27 04:24:59;;;;;;;11.93;6.20;;;;;;;2.09;95.03;95581.00;5060574;28;20199;-78
2022/11/27 04:27:25;;;;;;;11.38;6.32;;;;;;;2.29;94.81;95580.44;5058155;28;20207;-78
2022/11/27 04:29:55;;;;;;;10.43;4.57;;;;;;;2.38;93.92;95578.09;5063543;28;20208;-77
2022/11/27 04:32:22;;;;;;;9.20;4.63;;;;;;;2.07;94.21;95577.78;5065183;28;20199;-78
2022/11/27 04:34:49;;;;;;;11.23;4.55;;;;;;;1.85;95.07;95579.66;5051506;28;20697;-77
2022/11/27 04:37:17;;;;;;;8.98;5.22;;;;;;;1.91;95.24;95578.69;5065222;28;20203;-77
2022/11/27 04:39:43;;;;;;;6.45;4.57;;;;;;;1.98;95.48;95592.63;5061129;28;20207;-77
2022/11/27 04:42:10;;;;;;;10.48;6.13;;;;;;;2.04;95.33;95605.00;5059998;28;20224;-78
2022/11/27 04:44:37;;;;;;;4.43;3.38;;;;;;;2.26;95.41;95601.50;5058571;28;20204;-78
2022/11/27 04:47:04;;;;;;;8.25;5.63;;;;;;;2.26;94.42;95590.81;5051159;28;20694;-78
2022/11/27 04:49:30;;;;;;;6.82;4.57;;;;;;;2.20;94.38;95591.78;5051011;28;20199;-78
2022/11/27 04:51:57;;;;;;;17.48;5.22;;;;;;;2.00;94.66;95597.75;5051222;28;20281;-77
2022/11/27 04:54:26;;;;;;;7.30;5.30;;;;;;;1.92;94.95;95598.97;5054711;28;20204;-77
2022/11/27 04:56:53;;;;;;;7.35;3.70;;;;;;;1.88;95.84;95613.09;5068963;28;20328;-77
2022/11/27 04:59:22;;;;;;;10.48;5.93;;;;;;;1.86;96.21;95596.50;5059668;28;20593;-78
2022/11/27 05:01:49;;;;;;;9.02;5.03;;;;;;;1.91;95.90;95594.72;5063790;28;20234;-78
2022/11/27 05:04:16;;;;;;;11.00;6.22;;;;;;;2.01;94.62;95592.16;5062330;28;20203;-78
2022/11/27 05:06:42;;;;;;;11.18;6.28;;;;;;;2.00;96.19;95598.53;5052997;28;20200;-79
2022/11/27 05:09:09;;;;;;;8.82;4.53;;;;;;;1.80;95.27;95590.28;5063055;28;20659;-78
2022/11/27 05:11:37;;;;;;;16.10;5.90;;;;;;;1.78;95.49;95592.38;5052568;28;20207;-79
2022/11/27 05:16:51;;;;;;;7.78;4.70;;;;;;;2.15;94.81;95595.25;5050664;28;20215;-79
2022/11/27 05:19:20;;;;;;;7.80;4.63;;;;;;;2.23;94.53;95596.66;5050381;28;20225;-78
2022/11/27 05:21:47;;;;;;;11.73;5.53;;;;;;;2.24;94.28;95598.25;5050732;28;20246;-78
2022/11/27 05:24:14;;;;;;;9.50;5.68;;;;;;;2.07;94.28;95603.69;5063893;28;20215;-78
2022/11/27 05:26:43;;;;;;;13.55;6.05;;;;;;;1.86;94.72;95597.31;5059641;28;20570;-78
2022/11/27 05:29:11;;;;;;;10.75;5.05;;;;;;;1.90;94.99;95602.97;5056980;28;20666;-78
2022/11/27 05:31:38;;;;;;;9.73;4.53;;;;;;;1.97;95.35;95607.06;5061056;28;20207;-77
2022/11/27 05:34:05;;;;;;;8.77;5.55;;;;;;;1.89;94.83;95607.50;5063521;28;20235;-77
2022/11/27 05:36:33;;;;;;;6.45;3.35;;;;;;;1.82;94.63;95606.88;5060617;28;20667;-77
2022/11/27 05:39:00;;;;;;;12.02;3.65;;;;;;;1.50;96.23;95605.94;5057240;28;20233;-77
2022/11/27 05:41:27;;;;;;;10.52;4.45;;;;;;;1.40;97.31;95609.25;5060292;28;20204;-78
2022/11/27 05:43:55;;;;;;;8.70;4.13;;;;;;;1.47;97.00;95609.09;5064125;28;20235;-78
2022/11/27 05:46:23;;;;;;;12.85;5.32;;;;;;;1.37;97.29;95618.53;5060921;28;20198;-78
2022/11/27 05:48:50;;;;;;;12.50;5.05;;;;;;;1.39;97.42;95616.44;5052585;28;20219;-77
2022/11/27 05:51:18;;;;;;;12.18;5.65;;;;;;;1.39;98.14;95621.78;5062067;28;20926;-78
2022/11/27 05:53:45;;;;;;;10.63;5.78;;;;;;;1.35;98.17;95623.34;5065016;28;20296;-77
2022/11/27 05:56:14;;;;;;;10.25;5.00;;;;;;;1.34;98.22;95616.38;5061107;28;20199;-78
2022/11/27 05:58:42;;;;;;;6.60;4.03;;;;;;;1.27;98.17;95621.06;5056758;28;20262;-77
2022/11/27 06:01:12;;;;;;;13.50;6.28;;;;;;;1.20;99.04;95617.78;5056619;28;20483;-80
2022/11/27 06:03:39;;;;;;;12.93;5.25;;;;;;;1.19;99.67;95629.50;5051742;28;20693;-78
2022/11/27 06:06:07;;;;;;;12.20;4.57;;;;;;;1.32;99.51;95639.84;5063506;28;20561;-78
2022/11/27 06:08:35;;;;;;;9.20;4.35;;;;;;;1.25;99.60;95631.19;5050392;28;20312;-78
2022/11/27 06:11:07;;;;;;;10.98;5.05;;;;;;;1.25;99.94;95633.84;5059284;28;20199;-78
2022/11/27 06:13:34;;;;;;;9.90;5.13;;;;;;;1.31;100.00;95622.22;5056463;28;20629;-78
2022/11/27 06:16:05;;;;;;;11.98;5.28;;;;;;;1.42;99.72;95629.31;5050235;28;20208;-80
2022/11/27 06:18:33;;;;;;;13.75;4.60;;;;;;;1.56;99.21;95623.63;5057579;28;20286;-80
2022/11/27 06:21:00;;;;;;;16.67;5.05;;;;;;;1.66;98.85;95632.56;5058514;28;20199;-80
2022/11/27 06:23:27;;;;;;;14.38;5.90;;;;;;;1.68;98.13;95627.78;5059194;28;20227;-82
2022/11/27 06:25:53;;;;;;;11.23;5.65;;;;;;;1.69;97.49;95633.94;5063221;28;20188;-81
2022/11/27 06:28:20;;;;;;;5.03;3.28;;;;;;;1.71;97.51;95631.84;5052425;28;20241;-80
2022/11/27 06:30:47;;;;;;;17.67;5.20;;;;;;;1.67;97.74;95630.69;5052664;28;20209;-81
2022/11/27 06:33:14;;;;;;;10.00;4.72;;;;;;;1.84;98.07;95620.78;5060159;28;20281;-80
2022/11/27 06:35:45;;;;;;;14.35;3.88;;;;;;;1.82;97.42;95622.91;5063354;28;20219;-80
2022/11/27 06:38:12;;;;;;;8.13;4.95;;;;;;;1.79;97.13;95636.75;5055391;28;20807;-80
2022/11/27 06:40:38;;;;;;;4.35;3.78;;;;;;;1.67;97.29;95628.03;5063007;28;20221;-80
2022/11/27 06:43:05;;;;;;;13.68;4.65;;;;;;;1.73;97.94;95635.06;5057415;28;20297;-80
2022/11/27 06:45:32;;;;;;;9.20;5.07;;;;;;;1.74;97.77;95636.69;5065365;28;20191;-80
2022/11/27 06:47:59;;;;;;;9.55;5.45;;;;;;;1.84;98.32;95636.81;5049795;28;20204;-80
2022/11/27 06:50:25;;;;;;;14.68;8.38;;;;;;;2.14;97.81;95639.06;5052312;28;20701;-81
2022/11/27 06:52:54;;;;;;;12.07;5.05;;;;;;;2.33;96.25;95629.63;5057627;28;20215;-80
2022/11/27 06:55:20;;;;;;;14.68;6.32;;;;;;;2.36;95.22;95631.00;5053993;28;20203;-81
2022/11/27 06:57:50;;;;;;;14.52;5.25;;;;;;;2.31;95.14;95641.66;5054873;28;20195;-80
2022/11/27 07:00:18;;;;;;;11.00;5.95;;;;;;;2.43;95.51;95635.13;5050218;28;20663;-80
2022/11/27 07:02:44;;;;;;;15.45;6.85;;;;;;;2.69;94.74;95644.19;5049257;28;20258;-81
2022/11/27 07:05:11;;;;;;;8.00;4.75;;;;;;;2.72;93.74;95626.84;5062804;28;20245;-82
2022/11/27 07:07:38;;;;;;;11.65;6.28;;;;;;;2.88;93.01;95625.09;5061314;28;20203;-81
2022/11/27 07:10:07;;;;;;;15.60;6.05;;;;;;;3.19;91.88;95622.41;5055789;28;20202;-81
2022/11/27 07:12:34;;;;;;;12.02;5.93;;;;;;;3.20;91.17;95621.34;5059926;28;20261;-79
2022/11/27 07:15:01;;;;;;;17.50;6.50;;;;;;;3.51;90.42;95617.00;5059036;28;20616;-81
2022/11/27 07:17:28;;;;;;;16.90;7.80;;;;;;;3.79;89.51;95621.19;5059910;28;20203;-81
2022/11/27 07:19:54;;;;;;;11.40;6.15;;;;;;;3.85;88.06;95616.63;5066812;28;20204;-81
2022/11/27 07:22:21;;;;;;;18.48;8.43;;;;;;;3.88;87.92;95608.09;5053177;28;20568;-78
2022/11/27 07:24:48;;;;;;;16.73;7.97;;;;;;;4.08;87.52;95608.19;5053547;28;20230;-78
2022/11/27 07:27:16;;;;;;;19.38;5.95;;;;;;;3.87;87.30;95606.47;5055386;28;20203;-78
2022/11/27 07:29:43;;;;;;;19.95;8.75;;;;;;;3.97;86.71;95609.19;5058685;28;20195;-79
2022/11/27 07:32:10;;;;;;;17.58;7.18;;;;;;;3.75;87.07;95619.28;5069438;28;20211;-75
2022/11/27 07:34:36;;;;;;;16.77;8.00;;;;;;;3.93;87.45;95614.28;5052711;28;20290;-75
2022/11/27 07:37:03;;;;;;;14.98;7.38;;;;;;;4.20;86.52;95606.09;5062018;28;20222;-74
2022/11/27 07:39:30;;;;;;;20.10;7.30;;;;;;;4.17;87.08;95601.25;5052485;28;20204;-77
2022/11/27 07:41:57;;;;;;;21.98;8.68;;;;;;;4.51;85.32;95606.19;5065483;28;20577;-77
2022/11/27 07:44:25;;;;;;;17.92;5.88;;;;;;;4.42;84.89;95599.69;5052091;28;20648;-78
2022/11/27 07:46:51;;;;;;;17.38;7.95;;;;;;;4.72;84.16;95597.06;5066127;28;20199;-77
2022/11/27 07:49:18;;;;;;;17.20;9.05;;;;;;;4.50;83.97;95609.94;5063741;28;20710;-77
2022/11/27 07:51:45;;;;;;;23.95;10.65;;;;;;;4.60;84.42;95607.25;5054838;28;20257;-76
2022/11/27 07:54:12;;;;;;;12.80;6.60;;;;;;;4.38;84.03;95607.47;5062643;28;20226;-77
2022/11/27 07:56:39;;;;;;;11.95;6.25;;;;;;;4.57;82.75;95607.78;5065951;28;20596;-77
2022/11/27 07:59:05;;;;;;;11.13;6.78;;;;;;;4.46;83.53;95603.47;5061316;28;20203;-78
2022/11/27 08:01:36;;;;;;;22.27;9.23;;;;;;;4.27;83.83;95601.25;5058626;28;20715;-76
2022/11/27 08:04:06;;;;;;;12.73;7.65;;;;;;;4.31;84.44;95600.75;5062267;28;20216;-78
2022/11/27 08:06:33;;;;;;;20.40;9.98;;;;;;;4.44;83.71;95602.94;5065813;28;20208;-79
2022/11/27 08:09:00;;;;;;;18.25;7.65;;;;;;;4.42;83.13;95607.75;5062673;28;20213;-78
2022/11/27 08:11:28;;;;;;;14.70;5.90;;;;;;;3.94;85.25;95612.41;5055061;28;20196;-78
2022/11/27 08:13:57;;;;;;;18.10;7.80;;;;;;;3.72;86.99;95609.88;5062506;28;20207;-78
2022/11/27 08:16:23;;;;;;;25.30;9.93;;;;;;;3.56;87.46;95611.66;5053631;28;20695;-75
2022/11/27 08:18:52;;;;;;;20.58;8.95;;;;;;;3.42;87.85;95610.50;5063123;28;20210;-75
2022/11/27 08:21:20;;;;;;;10.40;5.13;;;;;;;3.35;87.57;95606.44;5058352;28;20199;-76
2022/11/27 08:23:46;;;;;;;12.45;7.30;;;;;;;3.25;87.76;95620.59;5070226;28;20705;-77
2022/11/27 08:26:13;;;;;;;13.68;7.47;;;;;;;3.08;88.86;95622.59;5052920;28;20203;-80
2022/11/27 08:28:41;;;;;;;10.65;4.78;;;;;;;3.15;88.57;95615.13;5063644;28;20202;-80
2022/11/27 08:31:10;;;;;;;11.80;7.05;;;;;;;3.22;88.34;95615.75;5057773;28;20214;-80
2022/11/27 08:33:40;;;;;;;12.23;6.40;;;;;;;3.68;88.12;95610.69;5071407;28;20234;-78
2022/11/27 08:36:09;;;;;;;15.95;7.15;;;;;;;3.87;86.91;95609.16;5071991;28;20213;-80
2022/11/27 08:38:36;;;;;;;12.75;7.63;;;;;;;4.23;85.24;95600.19;5071646;28;20626;-79
2022/11/27 08:41:05;;;;;;;22.38;8.32;;;;;;;4.51;84.06;95590.06;5058193;28;20199;-79
2022/11/27 08:43:39;;;;;;;14.93;7.47;;;;;;;4.67;84.06;95602.44;5058041;28;20231;-78
2022/11/27 08:46:07;;;;;;;20.60;9.48;;;;;;;4.69;82.18;95602.97;5063755;28;20199;-80
2022/11/27 08:48:34;;;;;;;14.00;6.68;;;;;;;4.73;82.15;95598.69;5058817;28;20269;-78
2022/11/27 08:51:08;;;;;;;15.43;9.25;;;;;;;4.58;82.02;95590.63;5061129;28;20208;-77
2022/11/27 08:53:37;;;;;;;16.52;8.23;;;;;;;4.26;82.93;95594.28;5050926;28;20219;-80
2022/11/27 08:56:11;;;;;;;20.33;10.18;;;;;;;4.13;83.90;95589.41;5061686;28;20670;-80
2022/11/27 08:58:39;;;;;;;20.02;7.90;;;;;;;4.11;83.56;95586.19;5071444;28;20676;-78
2022/11/27 09:01:11;;;;;;;20.42;8.43;;;;;;;4.05;84.36;95587.25;5058588;28;20295;-79
2022/11/27 09:03:38;;;;;;;15.32;7.72;;;;;;;4.18;84.42;95585.97;5064497;28;20284;-79
2022/11/27 09:06:07;;;;;;;14.93;7.43;;;;;;;4.28;83.17;95576.06;5051150;28;20291;-80
2022/11/27 09:08:35;;;;;;;16.98;8.65;;;;;;;4.42;83.79;95579.03;5051375;28;20536;-79
2022/11/27 09:11:08;;;;;;;22.92;10.55;;;;;;;4.26;82.78;95580.88;5051310;28;20199;-78
2022/11/27 09:13:36;;;;;;;13.40;6.90;;;;;;;4.60;82.23;95567.00;5062911;28;20199;-81
2022/11/27 09:16:04;;;;;;;18.95;9.88;;;;;;;4.65;81.85;95580.41;5063887;28;20198;-78
2022/11/27 09:18:31;;;;;;;17.67;8.65;;;;;;;4.61;82.39;95574.00;5051098;28;20200;-76
2022/11/27 09:20:59;;;;;;;16.52;8.18;;;;;;;4.53;82.10;95577.19;5052603;28;20208;-76
2022/11/27 09:23:25;;;;;;;13.60;7.30;;;;;;;4.32;82.82;95573.66;5061031;28;20262;-76
2022/11/27 09:25:54;;;;;;;19.20;9.23;;;;;;;4.69;82.18;95560.03;5063909;28;20199;-78
2022/11/27 09:28:20;;;;;;;16.85;7.65;;;;;;;4.47;81.72;95562.16;5059347;28;20207;-77
2022/11/27 09:30:47;;;;;;;17.50;7.95;;;;;;;4.51;81.63;95552.50;5056465;28;20261;-78
2022/11/27 09:33:14;;;;;;;8.93;6.20;;;;;;;4.53;82.10;95561.09;5061849;28;20285;-77
2022/11/27 09:35:41;;;;;;;15.88;8.25;;;;;;;4.95;81.46;95558.16;5063680;28;20260;-76
2022/11/27 09:38:08;;;;;;;12.38;7.25;;;;;;;4.99;80.20;95554.69;5059094;28;20597;-75
2022/11/27 09:40:35;;;;;;;13.98;6.50;;;;;;;4.62;80.92;95556.81;5056957;28;20204;-77
2022/11/27 09:43:08;;;;;;;16.45;7.00;;;;;;;4.50;80.93;95550.91;5061288;28;20315;-78
2022/11/27 09:45:42;;;;;;;18.35;7.35;;;;;;;4.69;80.48;95554.66;5063786;28;20211;-77
2022/11/27 09:48:12;;;;;;;12.50;9.93;;;;;;;5.01;80.57;95546.34;5061174;28;20273;-78
2022/11/27 09:50:48;;;;;;;10.88;6.38;;;;;;;5.37;78.98;95541.72;5056675;28;20214;-78
2022/11/27 09:53:24;;;;;;;17.75;8.48;;;;;;;5.53;78.63;95527.19;5069115;28;20225;-78
2022/11/27 09:55:54;;;;;;;9.23;5.50;;;;;;;5.24;78.09;95535.03;5059062;28;20193;-77
2022/11/27 09:58:36;;;;;;;17.75;7.00;;;;;;;4.83;79.25;95534.28;5067403;28;20190;-78
2022/11/27 10:01:10;;;;;;;9.38;5.88;;;;;;;5.24;79.21;95523.47;5061301;28;20191;-79
2022/11/27 10:03:40;;;;;;;5.95;1.75;;;;;;;5.36;78.16;95506.00;5056951;28;20319;-77
2022/11/27 10:06:21;;;;;;;10.60;7.13;;;;;;;5.55;78.21;95511.59;5056092;28;20204;-78
2022/11/27 10:08:58;;;;;;;11.50;6.10;;;;;;;5.63;77.31;95513.69;5050064;28;20227;-78
2022/11/27 10:11:31;;;;;;;13.70;6.28;;;;;;;5.81;76.16;95506.91;5063573;28;20200;-79
2022/11/27 10:14:20;;;;;;;9.43;4.97;;;;;;;5.66;76.12;95505.09;5060316;28;20191;-79
2022/11/27 10:16:53;;;;;;;8.10;3.50;;;;;;;5.62;75.96;95509.41;5056829;28;20237;-77
2022/11/27 10:19:31;;;;;;;11.40;6.13;;;;;;;5.60;76.80;95500.81;5056445;28;20191;-80
2022/11/27 10:22:04;;;;;;;13.85;7.38;;;;;;;5.86;76.58;95492.66;5069512;28;20194;-78
2022/11/27 10:24:39;;;;;;;15.73;8.52;;;;;;;5.82;75.65;95491.59;5065001;28;20211;-79
2022/11/27 10:27:17;;;;;;;9.57;4.10;;;;;;;5.65;76.13;95492.72;5049871;28;20195;-79
2022/11/27 10:29:52;;;;;;;10.35;4.80;;;;;;;6.21;75.59;95484.41;5056461;28;20231;-75
2022/11/27 10:32:21;;;;;;;2.95;2.67;;;;;;;5.85;75.28;95480.28;5054434;28;20666;-73
2022/11/27 10:34:52;;;;;;;4.07;2.22;;;;;;;5.83;75.23;95475.19;5049842;28;20203;-77
2022/11/27 10:37:25;;;;;;;6.20;4.70;;;;;;;5.68;76.58;95465.31;5051890;28;20206;-75
2022/11/27 10:39:57;;;;;;;17.98;7.22;;;;;;;5.46;76.63;95472.94;5059643;28;20261;-74
2022/11/27 10:42:27;;;;;;;11.32;6.47;;;;;;;5.69;75.55;95469.59;5062519;28;20775;-77
2022/11/27 10:45:01;;;;;;;8.95;2.42;;;;;;;5.79;75.78;95471.44;5061319;28;20261;-73
2022/11/27 10:47:28;;;;;;;14.02;8.00;;;;;;;5.98;75.48;95460.91;5055291;28;20707;-75
2022/11/27 10:49:56;;;;;;;9.25;6.18;;;;;;;6.00;75.00;95462.22;5055747;28;20215;-73
2022/11/27 10:52:23;;;;;;;7.57;4.80;;;;;;;5.72;73.99;95466.38;5061543;28;20865;-78
2022/11/27 10:54:55;;;;;;;16.55;7.03;;;;;;;5.65;75.55;95446.22;5049681;28;20204;-74
2022/11/27 10:57:50;;;;;;;10.32;2.95;;;;;;;5.94;74.68;95465.22;5060687;28;20200;-76
2022/11/27 11:00:22;;;;;;;6.43;2.45;;;;;;;5.69;74.99;95458.84;5062248;28;20290;-77
2022/11/27 11:02:58;;;;;;;8.88;4.72;;;;;;;5.79;74.96;95460.69;5057385;28;20794;-78
2022/11/27 11:05:27;;;;;;;13.40;6.40;;;;;;;5.82;74.44;95454.75;5056944;28;20222;-77
2022/11/27 11:08:03;;;;;;;14.65;7.55;;;;;;;5.99;74.59;95451.75;5055058;28;20203;-76
2022/11/27 11:10:33;;;;;;;12.95;6.40;;;;;;;5.85;74.42;95453.41;5069324;28;20705;-79
2022/11/27 11:13:17;;;;;;;13.50;6.47;;;;;;;5.58;74.57;95449.25;5056050;28;20194;-79
2022/11/27 11:15:50;;;;;;;8.18;4.28;;;;;;;5.52;75.14;95444.94;5056130;28;20238;-77
2022/11/27 11:18:18;;;;;;;8.57;5.93;;;;;;;5.65;75.17;95444.34;5048557;28;20210;-76
2022/11/27 11:20:48;;;;;;;8.60;5.30;;;;;;;5.61;75.45;95445.16;5049478;28;20287;-76
2022/11/27 11:23:27;;;;;;;9.77;3.63;;;;;;;5.67;75.50;95430.63;5068133;28;20616;-77
2022/11/27 11:25:57;;;;;;;14.00;7.35;;;;;;;5.82;75.48;95427.06;5055674;28;20213;-77
2022/11/27 11:28:24;;;;;;;7.75;4.82;;;;;;;5.99;73.89;95425.66;5058988;28;20274;-78
2022/11/27 11:30:59;;;;;;;7.07;4.80;;;;;;;5.89;73.94;95432.97;5062764;28;20205;-80
2022/11/27 11:33:28;;;;;;;8.05;4.85;;;;;;;6.11;74.70;95421.81;5048422;28;20277;-80
2022/11/27 11:35:59;;;;;;;9.82;5.38;;;;;;;5.99;74.14;95412.22;5056253;28;20211;-79
2022/11/27 11:38:32;;;;;;;15.35;6.45;;;;;;;6.20;73.83;95412.84;5051330;28;20570;-79
2022/11/27 11:41:02;;;;;;;10.32;5.20;;;;;;;6.05;73.31;95408.38;5048620;28;20278;-79
2022/11/27 11:43:31;;;;;;;13.18;5.85;;;;;;;6.19;72.78;95410.44;5053362;28;20204;-80
2022/11/27 11:46:07;;;;;;;9.10;5.80;;;;;;;6.15;72.92;95404.81;5052986;28;20222;-80
2022/11/27 11:48:35;;;;;;;5.00;3.45;;;;;;;6.08;72.50;95409.72;5045889;28;20326;-80